Time;durP1;ratioP1;P1;durP2;ratioP2;P2;SDS_P1;SDS_P2;PMS_P1;PMS_P2;Temp;Humidity;BMP_temperature;BMP_pressure;BME280_temperature;BME280_humidity;BME280_pressure;Samples;Min_cycle;Max_cycle;Signal;HPM_P1;HPM_P2
2022/02/19 00:02:25;;;;;;;0.30;0.20;;;6.00;99.90;;;;;;5033364;28;20442;-84
2022/02/19 00:04:52;;;;;;;0.30;0.20;;;6.00;99.90;;;;;;5035161;28;20442;-85
2022/02/19 00:07:19;;;;;;;0.30;0.20;;;6.10;99.90;;;;;;5036982;28;20454;-84
2022/02/19 00:09:46;;;;;;;0.30;0.20;;;6.00;99.90;;;;;;5036989;28;20957;-85
2022/02/19 00:12:14;;;;;;;0.30;0.20;;;6.00;99.90;;;;;;5036983;28;20478;-84
2022/02/19 00:14:41;;;;;;;0.30;0.20;;;6.00;99.90;;;;;;5037242;28;20953;-85
2022/02/19 00:17:07;;;;;;;0.30;0.20;;;6.00;99.90;;;;;;5037119;28;20455;-84
2022/02/19 00:19:34;;;;;;;0.30;0.20;;;6.00;99.90;;;;;;5037220;28;20461;-85
2022/02/19 00:22:01;;;;;;;0.30;0.20;;;6.00;99.90;;;;;;5037108;28;20443;-85
2022/02/19 00:24:28;;;;;;;0.30;0.30;;;6.10;99.90;;;;;;5036871;28;20450;-85
2022/02/19 00:26:55;;;;;;;0.30;0.23;;;6.10;99.90;;;;;;5036927;28;20474;-85
2022/02/19 00:29:23;;;;;;;0.60;0.60;;;6.10;99.90;;;;;;5036678;28;20491;-85
2022/02/19 00:31:50;;;;;;;0.30;0.20;;;6.10;99.90;;;;;;5036855;28;20482;-85
2022/02/19 00:34:17;;;;;;;0.30;0.20;;;6.10;99.90;;;;;;5036944;28;20454;-84
2022/02/19 00:36:44;;;;;;;0.30;0.20;;;6.20;99.90;;;;;;5036921;28;20505;-84
2022/02/19 00:39:12;;;;;;;0.30;0.30;;;6.20;99.90;;;;;;5036816;28;20446;-85
2022/02/19 00:41:38;;;;;;;0.30;0.20;;;6.10;99.90;;;;;;5036675;28;20451;-85
2022/02/19 00:44:07;;;;;;;0.30;0.20;;;6.10;99.90;;;;;;5036904;28;20446;-84
2022/02/19 00:46:35;;;;;;;0.30;0.20;;;6.10;99.90;;;;;;5036301;28;21000;-84
2022/02/19 00:49:03;;;;;;;0.30;0.30;;;6.10;99.90;;;;;;5036713;28;20469;-85
2022/02/19 00:51:30;;;;;;;0.30;0.20;;;6.10;99.90;;;;;;5036479;28;20471;-85
2022/02/19 00:53:57;;;;;;;0.30;0.20;;;6.20;99.90;;;;;;5036353;28;20466;-85
2022/02/19 00:56:24;;;;;;;0.30;0.20;;;6.20;99.90;;;;;;5036523;28;20913;-85
2022/02/19 00:58:51;;;;;;;0.30;0.30;;;6.10;99.90;;;;;;5036269;28;20466;-84
2022/02/19 01:01:18;;;;;;;0.30;0.20;;;6.10;99.90;;;;;;5036638;28;20450;-85
2022/02/19 01:03:47;;;;;;;0.30;0.20;;;6.10;99.90;;;;;;5036687;28;20450;-85
2022/02/19 01:06:14;;;;;;;0.30;0.20;;;6.10;99.90;;;;;;5036429;28;20934;-85
2022/02/19 01:08:40;;;;;;;0.30;0.20;;;6.10;99.90;;;;;;5036078;28;20455;-84
2022/02/19 01:11:07;;;;;;;0.77;0.77;;;6.20;99.90;;;;;;5036119;28;20474;-84
2022/02/19 01:13:34;;;;;;;0.30;0.30;;;6.20;99.90;;;;;;5035970;28;20434;-85
2022/02/19 01:16:01;;;;;;;0.30;0.20;;;6.30;99.90;;;;;;5034775;28;20446;-85
2022/02/19 01:18:27;;;;;;;0.30;0.30;;;6.20;99.90;;;;;;5035712;28;20462;-84
2022/02/19 01:20:56;;;;;;;0.30;0.20;;;6.30;99.90;;;;;;5035884;28;20934;-84
2022/02/19 01:23:22;;;;;;;0.30;0.30;;;6.30;99.90;;;;;;5036063;28;20443;-84
2022/02/19 01:25:49;;;;;;;0.30;0.30;;;6.20;99.90;;;;;;5036153;28;20457;-84
2022/02/19 01:28:16;;;;;;;0.30;0.20;;;6.20;99.90;;;;;;5035708;28;20487;-85
2022/02/19 01:30:43;;;;;;;0.30;0.20;;;6.10;99.90;;;;;;5035834;28;20447;-84
2022/02/19 01:33:09;;;;;;;0.30;0.20;;;6.20;99.90;;;;;;5035278;28;20985;-85
2022/02/19 01:35:37;;;;;;;0.30;0.20;;;6.10;99.90;;;;;;5035540;28;20450;-85
2022/02/19 01:38:05;;;;;;;0.30;0.20;;;6.10;99.90;;;;;;5035617;28;20986;-84
2022/02/19 01:40:32;;;;;;;0.30;0.20;;;6.10;99.90;;;;;;5035375;28;20439;-85
2022/02/19 01:42:59;;;;;;;0.30;0.20;;;6.10;99.90;;;;;;5035598;28;20443;-85
2022/02/19 01:45:26;;;;;;;0.30;0.30;;;6.10;99.90;;;;;;5036181;28;20435;-84
2022/02/19 01:47:53;;;;;;;0.30;0.20;;;6.00;99.90;;;;;;5036253;28;20812;-85
2022/02/19 01:50:20;;;;;;;0.30;0.20;;;6.10;99.90;;;;;;5035879;28;20454;-84
2022/02/19 01:52:47;;;;;;;0.30;0.20;;;6.00;99.90;;;;;;5035847;28;20483;-85
2022/02/19 01:55:15;;;;;;;0.30;0.20;;;6.00;99.90;;;;;;5035865;28;20455;-84
2022/02/19 01:57:44;;;;;;;0.30;0.20;;;6.00;99.90;;;;;;5035714;28;20475;-85
2022/02/19 02:00:13;;;;;;;0.30;0.20;;;5.90;99.90;;;;;;5035843;28;20439;-85
2022/02/19 02:02:41;;;;;;;0.30;0.20;;;5.90;99.90;;;;;;5036095;28;20435;-86
2022/02/19 02:05:08;;;;;;;0.30;0.20;;;5.90;99.90;;;;;;5036032;28;20498;-84
2022/02/19 02:07:35;;;;;;;0.30;0.20;;;5.90;99.90;;;;;;5035290;28;20537;-85
2022/02/19 02:10:03;;;;;;;0.83;0.83;;;5.90;99.90;;;;;;5035138;28;20834;-84
2022/02/19 02:12:31;;;;;;;0.30;0.20;;;5.80;99.90;;;;;;5034766;28;20485;-84
2022/02/19 02:14:58;;;;;;;0.30;0.20;;;5.80;99.90;;;;;;5034999;28;20462;-84
2022/02/19 02:17:25;;;;;;;0.30;0.20;;;5.90;99.90;;;;;;5034921;28;20463;-84
2022/02/19 02:19:51;;;;;;;0.30;0.20;;;5.90;99.90;;;;;;5034748;28;20435;-84
2022/02/19 02:22:19;;;;;;;0.30;0.20;;;5.90;99.90;;;;;;5034933;28;20849;-84
2022/02/19 02:24:47;;;;;;;0.30;0.30;;;5.80;99.90;;;;;;5034916;28;20803;-84
2022/02/19 02:27:14;;;;;;;0.30;0.30;;;5.70;99.90;;;;;;5034560;28;20467;-84
2022/02/19 02:29:42;;;;;;;0.30;0.20;;;5.70;99.90;;;;;;5034749;28;20502;-85
2022/02/19 02:32:10;;;;;;;0.30;0.20;;;5.70;99.90;;;;;;5034828;28;20565;-85
2022/02/19 02:34:48;;;;;;;0.30;0.20;;;5.60;99.90;;;;;;5034757;28;20518;-84
2022/02/19 02:37:15;;;;;;;0.30;0.20;;;5.70;99.90;;;;;;5034456;28;20512;-84
2022/02/19 02:39:43;;;;;;;0.30;0.30;;;5.60;99.90;;;;;;5035068;28;20447;-86
2022/02/19 02:42:10;;;;;;;0.30;0.30;;;5.60;99.90;;;;;;5035545;28;20931;-86
2022/02/19 02:44:39;;;;;;;0.30;0.30;;;5.60;99.90;;;;;;5034428;28;20938;-85
2022/02/19 02:47:07;;;;;;;0.30;0.30;;;5.60;99.90;;;;;;5034437;28;20466;-84
2022/02/19 02:49:34;;;;;;;0.30;0.20;;;5.50;99.90;;;;;;5034452;28;20443;-85
2022/02/19 02:52:00;;;;;;;0.30;0.30;;;5.50;99.90;;;;;;5034401;28;20483;-84
2022/02/19 02:54:27;;;;;;;0.30;0.20;;;5.50;99.90;;;;;;5034221;28;20446;-84
2022/02/19 02:56:55;;;;;;;0.30;0.20;;;5.50;99.90;;;;;;5034474;28;20470;-85
2022/02/19 02:59:22;;;;;;;0.30;0.30;;;5.50;99.90;;;;;;5034463;28;20451;-85
2022/02/19 03:01:49;;;;;;;0.30;0.20;;;5.50;99.90;;;;;;5035471;28;20818;-86
2022/02/19 03:04:16;;;;;;;0.30;0.20;;;5.50;99.90;;;;;;5034118;28;20458;-84
2022/02/19 03:06:42;;;;;;;0.30;0.20;;;5.60;99.90;;;;;;5034274;28;20438;-85
2022/02/19 03:09:09;;;;;;;0.30;0.20;;;5.60;99.90;;;;;;5033806;28;20945;-85
2022/02/19 03:11:36;;;;;;;0.30;0.20;;;5.60;99.90;;;;;;5033896;28;20427;-85
2022/02/19 03:14:05;;;;;;;0.30;0.30;;;5.60;99.90;;;;;;5033998;28;20446;-84
2022/02/19 03:16:32;;;;;;;0.30;0.20;;;5.50;99.90;;;;;;5033877;28;20447;-84
2022/02/19 03:18:59;;;;;;;0.30;0.20;;;5.60;99.90;;;;;;5034014;28;20454;-84
2022/02/19 03:21:26;;;;;;;0.30;0.20;;;5.60;99.90;;;;;;5033965;28;20454;-85
2022/02/19 03:23:53;;;;;;;0.30;0.20;;;5.60;99.90;;;;;;5034096;28;20435;-84
2022/02/19 03:26:19;;;;;;;0.30;0.30;;;5.60;99.90;;;;;;5034282;28;20525;-84
2022/02/19 03:28:47;;;;;;;0.30;0.20;;;5.60;99.90;;;;;;5033374;28;20482;-85
2022/02/19 03:31:15;;;;;;;0.30;0.20;;;5.60;99.90;;;;;;5033767;28;20453;-84
2022/02/19 03:33:42;;;;;;;0.30;0.20;;;5.70;99.90;;;;;;5033560;28;20482;-84
2022/02/19 03:36:09;;;;;;;0.30;0.20;;;5.70;99.90;;;;;;5033899;28;20527;-85
2022/02/19 03:38:36;;;;;;;0.30;0.30;;;5.70;99.90;;;;;;5034019;28;20473;-84
2022/02/19 03:41:02;;;;;;;0.30;0.20;;;5.70;99.90;;;;;;5033581;28;20461;-84
2022/02/19 03:43:29;;;;;;;0.30;0.20;;;5.70;99.90;;;;;;5033469;28;20439;-84
2022/02/19 03:45:56;;;;;;;0.30;0.20;;;5.70;99.90;;;;;;5033541;28;20451;-85
2022/02/19 03:48:24;;;;;;;0.30;0.20;;;5.60;99.90;;;;;;5033569;28;20474;-84
2022/02/19 03:50:51;;;;;;;0.30;0.30;;;5.60;99.90;;;;;;5033170;28;20448;-84
2022/02/19 03:53:17;;;;;;;0.30;0.30;;;5.50;99.90;;;;;;5033311;28;20479;-84
2022/02/19 03:55:44;;;;;;;0.30;0.20;;;5.50;99.90;;;;;;5033460;28;20953;-84
2022/02/19 03:58:11;;;;;;;0.30;0.30;;;5.50;99.90;;;;;;5033282;28;20467;-85
2022/02/19 04:00:38;;;;;;;0.30;0.20;;;5.50;99.90;;;;;;5033908;28;20824;-84
2022/02/19 04:03:06;;;;;;;2.20;0.63;;;5.30;99.90;;;;;;5033309;28;20442;-84
2022/02/19 04:05:34;;;;;;;0.30;0.20;;;5.20;99.90;;;;;;5033302;28;20457;-84
2022/02/19 04:08:00;;;;;;;0.30;0.20;;;5.20;99.90;;;;;;5033271;28;20478;-84
2022/02/19 04:10:27;;;;;;;0.30;0.20;;;5.10;99.90;;;;;;5033407;28;20457;-84
2022/02/19 04:12:55;;;;;;;0.30;0.20;;;5.10;99.90;;;;;;5033167;28;20494;-84
2022/02/19 04:15:22;;;;;;;0.30;0.20;;;5.10;99.90;;;;;;5033116;28;20450;-84
2022/02/19 04:17:49;;;;;;;0.30;0.20;;;5.00;99.90;;;;;;5033128;28;20455;-84
2022/02/19 04:20:16;;;;;;;0.30;0.20;;;5.00;99.90;;;;;;5033277;28;20461;-84
2022/02/19 04:22:44;;;;;;;0.30;0.20;;;5.00;99.90;;;;;;5033853;28;20450;-85
2022/02/19 04:25:11;;;;;;;0.30;0.20;;;5.00;99.90;;;;;;5033053;28;20934;-85
2022/02/19 04:27:38;;;;;;;0.30;0.20;;;5.00;99.90;;;;;;5033047;28;20466;-85
2022/02/19 04:30:07;;;;;;;0.30;0.30;;;4.90;99.90;;;;;;5032687;28;20488;-85
2022/02/19 04:32:33;;;;;;;0.30;0.20;;;4.90;99.90;;;;;;5032980;28;20556;-85
2022/02/19 04:35:00;;;;;;;0.30;0.30;;;4.90;99.90;;;;;;5032828;28;20450;-85
2022/02/19 04:37:27;;;;;;;0.30;0.30;;;4.90;99.90;;;;;;5032948;28;20473;-85
2022/02/19 04:39:55;;;;;;;0.30;0.30;;;4.80;99.90;;;;;;5032974;28;20450;-85
2022/02/19 04:42:22;;;;;;;0.30;0.30;;;4.80;99.90;;;;;;5032773;28;20447;-85
2022/02/19 04:44:49;;;;;;;0.30;0.30;;;4.70;99.90;;;;;;5032822;28;20458;-86
2022/02/19 04:47:15;;;;;;;0.30;0.30;;;4.70;99.90;;;;;;5033019;28;20478;-85
2022/02/19 04:49:42;;;;;;;0.30;0.20;;;4.70;99.90;;;;;;5032715;28;20451;-85
2022/02/19 04:52:09;;;;;;;0.30;0.20;;;4.60;99.90;;;;;;5036760;28;20447;-86
2022/02/19 04:54:36;;;;;;;0.30;0.20;;;4.50;99.90;;;;;;5036255;28;20954;-85
2022/02/19 04:57:04;;;;;;;0.30;0.20;;;4.50;99.90;;;;;;5036360;28;20482;-85
2022/02/19 04:59:31;;;;;;;0.30;0.20;;;4.40;99.90;;;;;;5036372;28;20434;-85
2022/02/19 05:01:58;;;;;;;0.30;0.20;;;4.50;99.90;;;;;;5036366;28;20463;-85
2022/02/19 05:04:25;;;;;;;0.30;0.20;;;4.50;99.90;;;;;;5036147;28;20438;-85
2022/02/19 05:06:51;;;;;;;0.30;0.20;;;4.50;99.90;;;;;;5036002;28;20485;-85
2022/02/19 05:09:19;;;;;;;0.53;0.53;;;4.50;99.90;;;;;;5036002;28;20522;-85
2022/02/19 05:11:46;;;;;;;0.30;0.30;;;4.50;99.90;;;;;;5036018;28;20478;-85
2022/02/19 05:14:14;;;;;;;0.30;0.20;;;4.40;99.90;;;;;;5036114;28;20486;-85
2022/02/19 05:16:40;;;;;;;0.30;0.27;;;4.40;99.90;;;;;;5035951;28;20453;-85
2022/02/19 05:19:07;;;;;;;0.30;0.30;;;4.30;99.90;;;;;;5036035;28;20446;-86
2022/02/19 05:21:34;;;;;;;0.30;0.30;;;4.30;99.90;;;;;;5035870;28;20451;-86
2022/02/19 05:24:01;;;;;;;0.30;0.20;;;4.30;99.90;;;;;;5036091;28;20447;-85
2022/02/19 05:26:28;;;;;;;0.30;0.20;;;4.20;99.90;;;;;;5035856;28;20455;-86
2022/02/19 05:28:55;;;;;;;0.30;0.20;;;4.20;99.90;;;;;;5035377;28;20997;-85
2022/02/19 05:31:23;;;;;;;0.30;0.20;;;4.20;99.90;;;;;;5035982;28;20463;-86
2022/02/19 05:33:49;;;;;;;0.30;0.23;;;4.20;99.90;;;;;;5035697;28;20482;-86
2022/02/19 05:36:16;;;;;;;0.30;0.20;;;4.20;99.90;;;;;;5035744;28;20454;-86
2022/02/19 05:38:43;;;;;;;0.30;0.20;;;4.20;99.90;;;;;;5035489;28;20542;-85
2022/02/19 05:41:10;;;;;;;0.30;0.20;;;4.20;99.90;;;;;;5035545;28;20545;-85
2022/02/19 05:43:36;;;;;;;0.30;0.20;;;4.10;99.90;;;;;;5035561;28;20454;-86
2022/02/19 05:46:03;;;;;;;0.30;0.20;;;4.10;99.90;;;;;;5035402;28;20933;-85
2022/02/19 05:48:31;;;;;;;0.30;0.20;;;4.10;99.90;;;;;;5035400;28;20966;-85
2022/02/19 05:50:58;;;;;;;0.30;0.20;;;4.10;99.90;;;;;;5035797;28;20862;-85
2022/02/19 05:53:25;;;;;;;0.30;0.20;;;4.10;99.90;;;;;;5035152;28;20478;-86
2022/02/19 05:55:53;;;;;;;0.30;0.20;;;4.10;99.90;;;;;;5035254;28;20447;-86
2022/02/19 05:58:20;;;;;;;0.30;0.30;;;4.10;99.90;;;;;;5035276;28;20489;-85
2022/02/19 06:00:47;;;;;;;0.30;0.20;;;4.10;99.90;;;;;;5034919;28;20962;-85
2022/02/19 06:03:14;;;;;;;0.30;0.20;;;4.10;99.90;;;;;;5034585;28;20450;-86
2022/02/19 06:05:43;;;;;;;0.30;0.20;;;4.10;99.90;;;;;;5035151;28;20451;-86
2022/02/19 06:08:09;;;;;;;0.30;0.20;;;4.10;99.90;;;;;;5035059;28;20474;-85
2022/02/19 06:10:36;;;;;;;0.30;0.20;;;4.00;99.90;;;;;;5035527;28;20526;-86
2022/02/19 06:13:03;;;;;;;0.30;0.30;;;4.00;99.90;;;;;;5034519;28;21001;-86
2022/02/19 06:15:29;;;;;;;0.30;0.20;;;3.90;99.90;;;;;;5034941;28;20447;-85
2022/02/19 06:17:56;;;;;;;1.50;1.50;;;3.90;99.90;;;;;;5034807;28;20471;-85
2022/02/19 06:20:23;;;;;;;0.30;0.20;;;3.90;99.90;;;;;;5034761;28;20454;-85
2022/02/19 06:22:51;;;;;;;0.57;0.57;;;3.80;99.90;;;;;;5034757;28;20443;-85
2022/02/19 06:25:18;;;;;;;0.30;0.20;;;3.80;99.90;;;;;;5035474;28;20465;-85
2022/02/19 06:27:46;;;;;;;0.30;0.30;;;3.80;99.90;;;;;;5034618;28;20473;-85
2022/02/19 06:30:14;;;;;;;0.30;0.20;;;3.80;99.90;;;;;;5014958;28;20800;-86
2022/02/19 06:32:41;;;;;;;0.30;0.30;;;3.80;99.90;;;;;;5014394;28;20943;-86
2022/02/19 06:35:08;;;;;;;0.30;0.30;;;3.80;99.90;;;;;;5014782;28;20456;-85
2022/02/19 06:37:40;;;;;;;0.30;0.30;;;3.80;99.90;;;;;;5014406;28;20467;-86
2022/02/19 06:40:10;;;;;;;0.50;0.50;;;3.90;99.90;;;;;;5014371;28;20486;-85
2022/02/19 06:42:37;;;;;;;0.40;0.33;;;3.90;99.90;;;;;;5014788;28;20440;-86
2022/02/19 06:45:05;;;;;;;0.30;0.20;;;3.90;99.90;;;;;;5014597;28;20451;-86
2022/02/19 06:47:32;;;;;;;0.30;0.30;;;3.90;99.90;;;;;;5014515;28;20859;-86
2022/02/19 06:50:00;;;;;;;0.30;0.20;;;4.00;99.90;;;;;;5014435;28;20455;-86
2022/02/19 06:52:27;;;;;;;0.30;0.20;;;4.00;99.90;;;;;;5014396;28;20452;-86
2022/02/19 06:54:54;;;;;;;0.30;0.30;;;4.00;99.90;;;;;;5014353;28;20486;-85
2022/02/19 06:57:22;;;;;;;0.30;0.20;;;4.00;99.90;;;;;;5013966;28;20975;-85
2022/02/19 06:59:50;;;;;;;0.30;0.30;;;4.00;99.90;;;;;;5014368;28;20518;-85
2022/02/19 07:02:17;;;;;;;0.30;0.20;;;4.00;99.90;;;;;;5014563;28;20448;-84
2022/02/19 07:04:45;;;;;;;0.30;0.30;;;4.00;99.90;;;;;;5014539;28;20439;-85
2022/02/19 07:07:12;;;;;;;0.30;0.20;;;4.00;99.90;;;;;;5014149;28;20482;-85
2022/02/19 07:09:39;;;;;;;0.30;0.27;;;4.10;99.90;;;;;;5014283;28;20452;-85
2022/02/19 07:12:06;;;;;;;0.30;0.30;;;4.30;99.90;;;;;;5014080;28;20462;-85
2022/02/19 07:14:35;;;;;;;0.30;0.20;;;4.40;99.90;;;;;;5013358;28;20494;-85
2022/02/19 07:17:04;;;;;;;0.30;0.30;;;4.40;99.90;;;;;;5014048;28;20467;-85
2022/02/19 07:19:31;;;;;;;0.30;0.20;;;4.60;99.90;;;;;;5014354;28;20444;-85
2022/02/19 07:21:58;;;;;;;0.30;0.30;;;4.60;99.90;;;;;;5014031;28;20462;-85
2022/02/19 07:24:25;;;;;;;0.30;0.20;;;4.80;99.90;;;;;;5013936;28;20440;-85
2022/02/19 07:26:52;;;;;;;0.30;0.20;;;4.90;99.90;;;;;;5013925;28;20525;-85
2022/02/19 07:29:19;;;;;;;1.10;0.40;;;5.00;99.90;;;;;;5026247;28;20478;-84
2022/02/19 07:31:48;;;;;;;1.03;0.57;;;5.10;99.90;;;;;;5033337;28;20462;-85
2022/02/19 07:34:15;;;;;;;0.30;0.20;;;5.30;99.90;;;;;;5033493;28;20840;-85
2022/02/19 07:36:42;;;;;;;0.30;0.20;;;5.50;99.90;;;;;;5033349;28;20474;-85
2022/02/19 07:39:10;;;;;;;0.30;0.20;;;5.60;99.90;;;;;;5033263;28;20458;-85
2022/02/19 07:41:37;;;;;;;0.30;0.20;;;5.70;99.90;;;;;;5033462;28;20493;-85
2022/02/19 07:44:05;;;;;;;0.30;0.20;;;5.90;99.90;;;;;;5033273;28;20435;-85
2022/02/19 07:46:32;;;;;;;0.30;0.20;;;6.00;99.90;;;;;;5033160;28;20438;-85
2022/02/19 07:58:17;;;;;;;0.63;0.47;;;6.10;99.90;;;;;;5032901;28;20957;-85
2022/02/19 08:00:00;;;;;;;0.30;0.20;;;6.60;99.90;;;;;;5033242;28;20465;-86
2022/02/19 08:02:27;;;;;;;0.30;0.20;;;6.70;99.90;;;;;;5033091;28;20942;-86
2022/02/19 08:04:55;;;;;;;0.30;0.30;;;6.80;99.90;;;;;;5033382;28;20439;-86
2022/02/19 08:07:21;;;;;;;0.30;0.20;;;6.90;99.90;;;;;;5033174;28;20474;-86
2022/02/19 08:09:49;;;;;;;0.30;0.20;;;7.00;99.90;;;;;;5033339;28;20530;-86
2022/02/19 08:12:16;;;;;;;0.30;0.20;;;7.00;99.90;;;;;;5033285;28;20431;-86
2022/02/19 08:14:42;;;;;;;0.30;0.30;;;7.20;99.90;;;;;;5033484;28;20814;-86
2022/02/19 08:17:09;;;;;;;0.30;0.30;;;7.20;99.90;;;;;;5032986;28;20486;-86
2022/02/19 08:19:36;;;;;;;0.30;0.20;;;7.30;99.90;;;;;;5033038;28;20458;-85
2022/02/19 08:22:04;;;;;;;0.30;0.20;;;7.30;99.90;;;;;;5033099;28;20432;-86
2022/02/19 08:24:31;;;;;;;0.30;0.20;;;7.40;99.90;;;;;;5033302;28;20431;-86
2022/02/19 08:26:58;;;;;;;0.30;0.20;;;7.60;99.90;;;;;;5036830;28;20477;-86
2022/02/19 08:29:25;;;;;;;0.30;0.20;;;7.70;99.90;;;;;;5036741;28;20842;-86
2022/02/19 08:31:51;;;;;;;0.30;0.20;;;7.70;99.90;;;;;;5036846;28;20493;-86
2022/02/19 08:34:18;;;;;;;0.30;0.20;;;7.50;99.80;;;;;;5036862;28;20489;-85
2022/02/19 08:36:45;;;;;;;0.30;0.20;;;7.60;99.90;;;;;;5036645;28;20462;-86
2022/02/19 08:39:13;;;;;;;0.30;0.20;;;7.50;99.90;;;;;;5036710;28;20458;-86
2022/02/19 08:41:40;;;;;;;0.30;0.20;;;7.40;99.50;;;;;;5036779;28;20462;-86
2022/02/19 08:44:07;;;;;;;0.30;0.30;;;7.50;99.60;;;;;;5036507;28;20946;-86
2022/02/19 08:46:34;;;;;;;0.30;0.20;;;7.40;99.50;;;;;;5036642;28;20485;-86
2022/02/19 08:49:01;;;;;;;0.30;0.20;;;7.30;99.70;;;;;;5036904;28;20443;-86
2022/02/19 08:51:28;;;;;;;0.30;0.20;;;7.30;99.90;;;;;;5036506;28;20542;-86
2022/02/19 08:53:55;;;;;;;0.30;0.20;;;7.40;99.60;;;;;;5036582;28;20478;-86
2022/02/19 08:56:23;;;;;;;0.30;0.20;;;7.60;99.60;;;;;;5036222;28;20458;-86
2022/02/19 08:58:50;;;;;;;0.30;0.20;;;7.60;99.10;;;;;;5036071;28;20459;-86
2022/02/19 09:01:17;;;;;;;0.30;0.20;;;7.60;99.90;;;;;;5036351;28;20457;-86
2022/02/19 09:03:43;;;;;;;0.30;0.30;;;7.80;99.90;;;;;;5036214;28;20442;-86
2022/02/19 09:06:10;;;;;;;0.50;0.50;;;8.10;98.90;;;;;;5036110;28;20446;-85
2022/02/19 09:08:37;;;;;;;0.30;0.20;;;8.50;98.20;;;;;;5036081;28;20470;-85
2022/02/19 09:11:04;;;;;;;0.30;0.20;;;8.90;97.80;;;;;;5035986;28;20446;-85
2022/02/19 09:13:32;;;;;;;0.30;0.20;;;9.80;95.80;;;;;;5035956;28;20453;-84
2022/02/19 09:15:59;;;;;;;0.30;0.20;;;10.90;93.90;;;;;;5035715;28;20442;-84
2022/02/19 09:18:25;;;;;;;0.30;0.20;;;11.80;91.50;;;;;;5035853;28;20473;-84
2022/02/19 09:20:52;;;;;;;0.30;0.20;;;12.90;88.10;;;;;;5035801;28;20461;-84
2022/02/19 09:23:19;;;;;;;0.40;0.30;;;14.20;79.80;;;;;;5035468;28;20815;-84
2022/02/19 09:25:47;;;;;;;0.30;0.30;;;15.30;71.50;;;;;;5035759;28;20457;-84
2022/02/19 09:28:13;;;;;;;0.70;0.30;;;16.40;66.80;;;;;;5035321;28;20487;-83
2022/02/19 09:30:42;;;;;;;0.30;0.20;;;17.40;59.80;;;;;;5035756;28;20427;-84
2022/02/19 09:33:08;;;;;;;0.30;0.27;;;18.50;53.40;;;;;;5035371;28;20465;-84
2022/02/19 09:35:35;;;;;;;0.30;0.20;;;19.10;49.50;;;;;;5035470;28;20482;-84
2022/02/19 09:38:02;;;;;;;1.37;0.40;;;19.20;48.00;;;;;;5034642;28;20482;-84
2022/02/19 09:40:29;;;;;;;0.30;0.30;;;19.00;49.40;;;;;;5036195;28;20754;-84
2022/02/19 09:42:56;;;;;;;2.10;1.17;;;19.60;47.60;;;;;;5035192;28;20808;-84
2022/02/19 09:45:29;;;;;;;0.30;0.30;;;20.10;46.80;;;;;;5035468;28;20442;-84
2022/02/19 09:47:57;;;;;;;0.50;0.30;;;20.20;44.90;;;;;;5035553;28;20471;-85
2022/02/19 09:50:27;;;;;;;0.60;0.30;;;20.10;45.00;;;;;;5035137;28;20521;-85
2022/02/19 09:52:53;;;;;;;0.30;0.30;;;20.40;45.00;;;;;;5035356;28;20446;-85
2022/02/19 09:55:22;;;;;;;0.30;0.20;;;19.60;46.00;;;;;;5035177;28;20482;-86
2022/02/19 09:57:49;;;;;;;0.90;0.30;;;19.40;46.90;;;;;;5035122;28;20474;-86
2022/02/19 10:00:26;;;;;;;0.30;0.30;;;19.60;46.50;;;;;;5035522;28;20466;-86
2022/02/19 10:02:53;;;;;;;0.30;0.20;;;19.00;45.10;;;;;;5035234;28;20799;-86
2022/02/19 10:05:22;;;;;;;0.53;0.30;;;18.30;46.40;;;;;;5035056;28;20449;-85
2022/02/19 10:08:02;;;;;;;0.30;0.30;;;17.10;47.50;;;;;;5035033;28;20466;-85
2022/02/19 10:10:30;;;;;;;0.30;0.30;;;16.60;50.20;;;;;;5035159;28;20462;-85
2022/02/19 10:12:57;;;;;;;0.47;0.47;;;16.40;51.20;;;;;;5035050;28;20411;-86
2022/02/19 10:15:39;;;;;;;0.30;0.30;;;16.60;50.90;;;;;;5034630;28;20851;-85
2022/02/19 10:18:21;;;;;;;0.30;0.30;;;16.10;48.60;;;;;;5035035;28;20478;-85
2022/02/19 10:21:14;;;;;;;0.33;0.30;;;16.40;50.90;;;;;;5034657;28;20435;-85
2022/02/19 10:23:42;;;;;;;0.80;0.30;;;16.80;48.90;;;;;;5034416;28;20907;-85
2022/02/19 10:26:10;;;;;;;0.30;0.20;;;17.80;47.40;;;;;;5034669;28;20436;-85
2022/02/19 10:28:37;;;;;;;0.30;0.20;;;18.80;44.90;;;;;;5034347;28;20474;-85
2022/02/19 10:31:14;;;;;;;0.30;0.30;;;19.50;43.60;;;;;;5034522;28;20443;-85
2022/02/19 10:33:42;;;;;;;0.50;0.30;;;20.50;43.20;;;;;;5034813;28;20426;-85
2022/02/19 10:36:19;;;;;;;0.43;0.43;;;21.60;41.70;;;;;;5034561;28;20458;-85
2022/02/19 10:38:53;;;;;;;0.30;0.30;;;22.30;41.50;;;;;;5034316;28;20473;-85
2022/02/19 10:41:21;;;;;;;0.40;0.30;;;23.00;40.50;;;;;;5034439;28;20453;-85
2022/02/19 10:43:48;;;;;;;0.30;0.30;;;23.80;40.40;;;;;;5034212;28;20809;-86
2022/02/19 10:46:15;;;;;;;0.38;0.38;;;24.10;36.70;;;;;;5034473;28;20176;-86
2022/02/19 10:48:42;;;;;;;0.40;0.30;;;24.30;35.80;;;;;;5033830;28;20707;-85
2022/02/19 10:51:11;;;;;;;3.25;0.45;;;24.30;35.90;;;;;;5033863;28;20199;-85
2022/02/19 10:53:40;;;;;;;0.40;0.30;;;24.20;36.40;;;;;;5034047;28;20218;-85
2022/02/19 10:56:12;;;;;;;0.30;0.30;;;24.30;35.50;;;;;;5033761;28;20255;-85
2022/02/19 10:58:39;;;;;;;0.30;0.30;;;23.40;36.30;;;;;;5033789;28;20270;-85
2022/02/19 11:01:19;;;;;;;0.40;0.30;;;22.50;36.50;;;;;;5033981;28;20207;-86
2022/02/19 11:03:47;;;;;;;0.30;0.30;;;21.80;36.80;;;;;;5033841;28;20654;-85
2022/02/19 11:06:15;;;;;;;0.30;0.20;;;21.40;37.30;;;;;;5033704;28;20693;-85
2022/02/19 11:08:43;;;;;;;0.40;0.40;;;20.70;37.20;;;;;;5033970;28;20566;-85
2022/02/19 11:11:11;;;;;;;0.40;0.30;;;19.30;38.30;;;;;;5034063;28;20211;-88
2022/02/19 11:13:38;;;;;;;1.10;0.33;;;18.50;39.40;;;;;;5033849;28;20211;-87
2022/02/19 11:16:06;;;;;;;0.40;0.33;;;17.50;40.70;;;;;;5033926;28;20486;-87
2022/02/19 11:18:34;;;;;;;0.40;0.30;;;16.50;41.90;;;;;;5033862;28;20505;-86
2022/02/19 11:21:02;;;;;;;0.30;0.30;;;15.60;43.70;;;;;;5033748;28;20451;-86
2022/02/19 11:23:31;;;;;;;0.30;0.30;;;14.80;45.50;;;;;;5033893;28;20451;-87
2022/02/19 11:26:00;;;;;;;0.30;0.30;;;14.10;46.20;;;;;;5033324;28;20457;-88
2022/02/19 11:28:31;;;;;;;0.30;0.30;;;13.60;48.10;;;;;;5033464;28;20486;-88
2022/02/19 11:30:58;;;;;;;0.30;0.20;;;13.00;48.80;;;;;;5033814;28;20446;-87
2022/02/19 11:33:28;;;;;;;0.30;0.20;;;12.70;48.20;;;;;;5033516;28;20455;-87
2022/02/19 11:35:59;;;;;;;0.33;0.27;;;12.40;49.00;;;;;;5033744;28;20490;-87
2022/02/19 11:38:29;;;;;;;0.30;0.20;;;12.10;50.70;;;;;;5034356;28;20482;-88
2022/02/19 11:41:01;;;;;;;0.30;0.30;;;11.90;51.50;;;;;;5034205;28;20446;-88
2022/02/19 11:43:41;;;;;;;0.30;0.20;;;11.80;52.30;;;;;;5033976;28;20442;-88
2022/02/19 11:46:32;;;;;;;0.30;0.30;;;11.90;51.60;;;;;;5033881;28;20427;-87
2022/02/19 11:48:58;;;;;;;0.30;0.20;;;11.80;51.10;;;;;;5032505;28;20454;-87
2022/02/19 11:51:27;;;;;;;0.40;0.33;;;11.80;51.20;;;;;;5033198;28;20434;-87
2022/02/19 11:54:14;;;;;;;0.87;0.87;;;11.70;51.00;;;;;;5034709;28;20781;-87
2022/02/19 11:56:44;;;;;;;0.50;0.30;;;11.40;50.70;;;;;;5033482;28;20450;-86
2022/02/19 11:59:12;;;;;;;0.50;0.30;;;11.20;50.20;;;;;;5034534;28;20449;-87
2022/02/19 12:01:43;;;;;;;0.30;0.20;;;11.10;50.80;;;;;;5037414;28;20441;-87
2022/02/19 12:04:15;;;;;;;0.30;0.20;;;11.00;50.30;;;;;;5038212;28;20441;-87
2022/02/19 12:06:43;;;;;;;0.30;0.20;;;10.90;50.20;;;;;;5037764;28;20433;-87
2022/02/19 12:09:12;;;;;;;0.30;0.20;;;10.80;51.10;;;;;;5037529;28;20945;-87
2022/02/19 12:12:09;;;;;;;0.30;0.20;;;10.70;51.70;;;;;;5037631;28;20431;-87
2022/02/19 12:15:01;;;;;;;0.30;0.30;;;10.70;51.40;;;;;;5037752;28;20431;-87
2022/02/19 12:17:46;;;;;;;0.30;0.30;;;10.60;51.50;;;;;;5037758;28;20470;-88
2022/02/19 12:20:30;;;;;;;0.30;0.20;;;10.60;51.10;;;;;;5036504;28;20454;-87
2022/02/19 12:23:01;;;;;;;0.30;0.20;;;10.30;52.70;;;;;;5037721;28;20431;-87
2022/02/19 12:26:08;;;;;;;0.30;0.27;;;10.20;53.00;;;;;;5038077;28;20789;-88
2022/02/19 12:28:42;;;;;;;0.30;0.30;;;10.10;53.70;;;;;;5037706;28;20556;-88
2022/02/19 12:31:24;;;;;;;0.30;0.20;;;9.90;54.10;;;;;;5037497;28;20865;-87
2022/02/19 12:33:53;;;;;;;0.30;0.20;;;9.80;53.20;;;;;;5037927;28;20493;-89
2022/02/19 12:36:20;;;;;;;0.30;0.20;;;9.60;54.30;;;;;;5037653;28;20521;-87
2022/02/19 12:38:50;;;;;;;0.30;0.20;;;9.70;54.60;;;;;;5036760;28;20454;-87
2022/02/19 12:41:18;;;;;;;0.30;0.20;;;9.70;55.20;;;;;;5036589;28;20442;-86
2022/02/19 12:44:06;;;;;;;0.30;0.20;;;9.70;55.00;;;;;;5036989;28;20458;-87
2022/02/19 12:46:34;;;;;;;0.30;0.20;;;9.70;55.20;;;;;;5036714;28;20465;-87
2022/02/19 12:49:02;;;;;;;0.30;0.30;;;9.60;54.70;;;;;;5036863;28;20437;-86
2022/02/19 12:51:29;;;;;;;0.30;0.20;;;9.40;54.70;;;;;;5036866;28;20411;-88
2022/02/19 12:53:55;;;;;;;0.30;0.30;;;9.30;56.30;;;;;;5037762;28;20427;-86
2022/02/19 12:56:23;;;;;;;0.30;0.30;;;9.30;56.60;;;;;;5036913;28;20474;-86
2022/02/19 12:58:50;;;;;;;0.40;0.30;;;9.20;58.00;;;;;;5036841;28;20516;-86
2022/02/19 13:01:18;;;;;;;0.87;0.87;;;9.10;56.30;;;;;;5036691;28;20434;-87
2022/02/19 13:03:45;;;;;;;0.30;0.20;;;9.10;57.00;;;;;;5036559;28;20913;-84
2022/02/19 13:06:12;;;;;;;1.90;0.40;;;9.00;57.50;;;;;;5036654;28;20458;-79
2022/02/19 13:08:39;;;;;;;0.30;0.30;;;9.10;58.40;;;;;;5036091;28;20470;-80
2022/02/19 13:11:08;;;;;;;0.30;0.20;;;9.10;57.60;;;;;;5035369;28;20435;-80